Time;durP1;ratioP1;P1;durP2;ratioP2;P2;SDS_P1;SDS_P2;PMS_P1;PMS_P2;Temp;Humidity;BMP_temperature;BMP_pressure;BME280_temperature;BME280_humidity;BME280_pressure;Samples;Min_cycle;Max_cycle;Signal;HPM_P1;HPM_P2
2022/06/26 00:01:33;;;;;;;1.10;0.80;;;21.00;99.90;;;;;;4993209;28;20643;-76
2022/06/26 00:03:58;;;;;;;0.80;0.60;;;21.00;99.90;;;;;;4992581;28;20638;-76
2022/06/26 00:06:24;;;;;;;0.80;0.70;;;20.90;99.90;;;;;;4990634;28;20182;-76
2022/06/26 00:08:50;;;;;;;2.90;1.40;;;20.90;99.90;;;;;;4991710;28;20190;-77
2022/06/26 00:11:16;;;;;;;2.70;1.23;;;20.90;99.90;;;;;;4991091;28;20427;-76
2022/06/26 00:13:44;;;;;;;6.77;0.93;;;21.00;99.90;;;;;;4988909;28;20227;-76
2022/06/26 00:16:10;;;;;;;1.47;1.00;;;21.00;99.90;;;;;;4989083;28;20193;-77
2022/06/26 00:18:36;;;;;;;1.00;0.80;;;21.00;99.90;;;;;;4972603;28;20468;-76
2022/06/26 00:21:02;;;;;;;1.83;0.80;;;21.00;99.90;;;;;;4990003;28;20402;-76
2022/06/26 00:23:28;;;;;;;1.80;0.70;;;20.90;99.90;;;;;;4991240;28;20479;-76
2022/06/26 00:25:54;;;;;;;1.10;1.00;;;20.90;99.90;;;;;;4992804;28;20420;-76
2022/06/26 00:28:19;;;;;;;1.20;0.80;;;21.00;99.90;;;;;;4994877;28;20182;-76
2022/06/26 00:30:45;;;;;;;2.20;0.90;;;21.10;99.90;;;;;;5009252;28;20425;-76
2022/06/26 00:33:11;;;;;;;1.60;0.83;;;21.00;99.90;;;;;;4992733;28;20192;-76
2022/06/26 00:35:37;;;;;;;2.33;0.80;;;21.10;99.90;;;;;;4994042;28;20880;-76
2022/06/26 00:38:03;;;;;;;1.20;0.80;;;21.10;99.90;;;;;;4994198;28;20500;-78
2022/06/26 00:40:28;;;;;;;2.47;0.73;;;21.10;99.90;;;;;;4992775;28;20251;-76
2022/06/26 00:42:54;;;;;;;0.97;0.70;;;21.10;99.90;;;;;;4992648;28;20189;-76
2022/06/26 00:45:20;;;;;;;1.93;0.93;;;21.00;99.90;;;;;;4994016;28;20204;-76
2022/06/26 00:47:46;;;;;;;1.70;1.00;;;20.90;99.90;;;;;;4993957;28;20186;-77
2022/06/26 00:50:12;;;;;;;1.10;0.97;;;20.90;99.90;;;;;;4992535;28;20205;-76
2022/06/26 00:52:40;;;;;;;2.37;1.53;;;20.90;99.90;;;;;;4993607;28;20555;-76
2022/06/26 00:55:06;;;;;;;1.50;1.40;;;20.80;99.90;;;;;;4993815;28;20447;-76
2022/06/26 00:57:34;;;;;;;2.50;1.50;;;20.60;99.90;;;;;;4993567;28;20479;-76
2022/06/26 01:00:01;;;;;;;2.00;1.53;;;20.60;99.90;;;;;;4975980;28;20432;-76
2022/06/26 01:02:26;;;;;;;1.43;1.33;;;20.60;99.90;;;;;;4993485;28;20499;-76
2022/06/26 01:04:52;;;;;;;1.67;1.43;;;20.40;99.90;;;;;;5008405;28;20573;-76
2022/06/26 01:07:18;;;;;;;1.63;1.53;;;20.30;99.90;;;;;;5008429;28;20186;-76
2022/06/26 01:09:44;;;;;;;1.93;1.33;;;20.30;99.90;;;;;;4992028;28;20721;-76
2022/06/26 01:12:10;;;;;;;2.07;1.63;;;20.30;99.90;;;;;;4993709;28;20231;-76
2022/06/26 01:14:37;;;;;;;1.87;1.70;;;20.30;99.90;;;;;;4993293;28;21096;-76
2022/06/26 01:17:03;;;;;;;2.57;1.90;;;20.20;99.90;;;;;;4993419;28;20532;-77
2022/06/26 01:19:30;;;;;;;5.03;1.43;;;20.20;99.90;;;;;;5009557;28;20431;-77
2022/06/26 01:21:56;;;;;;;1.37;1.27;;;20.10;99.90;;;;;;5008908;28;20463;-77
2022/06/26 01:24:22;;;;;;;2.60;1.33;;;20.10;99.90;;;;;;5009227;28;21045;-76
2022/06/26 01:26:48;;;;;;;1.43;1.33;;;20.10;99.90;;;;;;4993174;28;20982;-75
2022/06/26 01:29:13;;;;;;;2.30;1.43;;;20.10;99.90;;;;;;4992556;28;20499;-76
2022/06/26 01:31:39;;;;;;;2.23;1.53;;;20.00;99.90;;;;;;5008684;28;20561;-76
2022/06/26 01:34:07;;;;;;;1.40;1.30;;;20.10;99.90;;;;;;4992951;28;20213;-76
2022/06/26 01:36:33;;;;;;;2.00;1.90;;;20.10;99.90;;;;;;4991055;28;20487;-76
2022/06/26 01:38:59;;;;;;;4.53;1.43;;;20.10;99.90;;;;;;4993063;28;20480;-76
2022/06/26 01:41:25;;;;;;;1.30;1.20;;;20.10;99.90;;;;;;4991979;28;20441;-76
2022/06/26 01:43:51;;;;;;;5.23;1.90;;;20.10;99.90;;;;;;4991772;28;20208;-76
2022/06/26 01:46:18;;;;;;;1.83;1.40;;;20.20;99.90;;;;;;4991533;28;20921;-75
2022/06/26 01:48:43;;;;;;;1.53;1.43;;;20.20;99.90;;;;;;4993085;28;20281;-76
2022/06/26 01:51:09;;;;;;;2.40;1.73;;;20.30;99.90;;;;;;4991810;28;20532;-75
2022/06/26 01:53:36;;;;;;;1.60;1.47;;;20.20;99.90;;;;;;5007938;28;20197;-76
2022/06/26 01:56:03;;;;;;;3.50;1.80;;;20.20;99.90;;;;;;5007933;28;20436;-76
2022/06/26 01:58:29;;;;;;;5.00;1.50;;;20.30;99.90;;;;;;4993565;28;20472;-76
2022/06/26 02:00:55;;;;;;;3.00;1.40;;;20.20;99.90;;;;;;4993015;28;20451;-76
2022/06/26 02:03:22;;;;;;;5.43;2.30;;;20.00;99.90;;;;;;4992917;28;20385;-76
2022/06/26 02:05:51;;;;;;;2.90;1.63;;;19.90;99.90;;;;;;4992697;28;20425;-75
2022/06/26 02:08:17;;;;;;;1.50;1.40;;;19.80;99.90;;;;;;4992375;28;20495;-75
2022/06/26 02:13:37;;;;;;;1.60;1.50;;;19.70;99.90;;;;;;4992432;28;20505;-74
2022/06/26 02:16:07;;;;;;;3.17;1.40;;;19.80;99.90;;;;;;4992551;28;20471;-76
2022/06/26 02:18:33;;;;;;;1.30;1.07;;;19.80;99.90;;;;;;4992138;28;20479;-75
2022/06/26 02:20:59;;;;;;;1.77;1.63;;;19.80;99.90;;;;;;4991982;28;20501;-74
2022/06/26 02:23:26;;;;;;;1.60;1.50;;;19.80;99.90;;;;;;4974382;28;20429;-74
2022/06/26 02:25:52;;;;;;;1.90;1.80;;;19.80;99.90;;;;;;4992016;28;20432;-74
2022/06/26 02:28:18;;;;;;;2.63;1.53;;;19.80;99.90;;;;;;4991829;28;20427;-75
2022/06/26 02:30:44;;;;;;;1.63;1.33;;;19.80;99.90;;;;;;4991800;28;20931;-74
2022/06/26 02:33:10;;;;;;;5.23;1.90;;;19.70;99.90;;;;;;5006696;28;20197;-75
2022/06/26 02:35:35;;;;;;;4.20;1.97;;;19.70;99.90;;;;;;4990175;28;20495;-74
2022/06/26 02:38:01;;;;;;;2.40;1.53;;;19.60;99.90;;;;;;4990209;28;20219;-75
2022/06/26 02:40:29;;;;;;;1.80;1.70;;;19.60;99.90;;;;;;4990400;28;20188;-75
2022/06/26 02:42:55;;;;;;;2.00;1.90;;;19.60;99.90;;;;;;4991453;28;20655;-75
2022/06/26 02:45:21;;;;;;;1.50;1.40;;;19.60;99.90;;;;;;5006310;28;20452;-75
2022/06/26 02:47:47;;;;;;;3.13;1.70;;;19.50;99.90;;;;;;4991419;28;20983;-75
2022/06/26 02:50:14;;;;;;;5.03;1.50;;;19.50;99.90;;;;;;4990127;28;20434;-76
2022/06/26 02:52:40;;;;;;;1.60;1.50;;;19.50;99.90;;;;;;4991525;28;20433;-76
2022/06/26 02:55:06;;;;;;;1.57;1.43;;;19.60;99.90;;;;;;4991358;28;20570;-75
2022/06/26 02:57:32;;;;;;;1.93;1.50;;;19.50;99.90;;;;;;4991343;28;20571;-74
2022/06/26 02:59:58;;;;;;;2.60;1.57;;;19.40;99.90;;;;;;4991454;28;20615;-74
2022/06/26 03:02:24;;;;;;;1.73;1.63;;;19.40;99.90;;;;;;4973661;28;20184;-74
2022/06/26 03:04:52;;;;;;;3.10;1.67;;;19.40;99.90;;;;;;4991263;28;20685;-74
2022/06/26 03:07:17;;;;;;;1.70;1.60;;;19.40;99.90;;;;;;4991564;28;20417;-74
2022/06/26 03:09:43;;;;;;;1.77;1.67;;;19.40;99.90;;;;;;4991143;28;20864;-75
2022/06/26 03:12:09;;;;;;;3.20;1.97;;;19.40;99.90;;;;;;4989713;28;20439;-75
2022/06/26 03:14:35;;;;;;;1.97;1.80;;;19.30;99.90;;;;;;4990421;28;20746;-74
2022/06/26 03:17:01;;;;;;;2.83;1.87;;;19.40;99.90;;;;;;4990748;28;20933;-74
2022/06/26 03:19:27;;;;;;;3.53;1.63;;;19.30;99.90;;;;;;5005915;28;20480;-76
2022/06/26 03:21:53;;;;;;;4.60;1.93;;;19.20;99.90;;;;;;4991819;28;20435;-78
2022/06/26 03:24:18;;;;;;;3.10;1.87;;;19.00;99.90;;;;;;4990495;28;20237;-77
2022/06/26 03:26:45;;;;;;;3.97;1.60;;;19.00;99.90;;;;;;4991341;28;20186;-78
2022/06/26 03:29:11;;;;;;;5.47;2.10;;;19.00;99.90;;;;;;5007058;28;20220;-78
2022/06/26 03:31:37;;;;;;;3.07;1.80;;;19.00;99.90;;;;;;4991405;28;20515;-77
2022/06/26 03:34:06;;;;;;;1.80;1.70;;;18.90;99.90;;;;;;4991152;28;21013;-75
2022/06/26 03:36:33;;;;;;;2.53;1.67;;;18.80;99.90;;;;;;4990480;28;20431;-76
2022/06/26 03:38:58;;;;;;;3.47;1.57;;;18.60;99.90;;;;;;4972793;28;20490;-76
2022/06/26 03:41:24;;;;;;;4.53;2.07;;;18.60;99.90;;;;;;4990461;28;20416;-76
2022/06/26 03:43:50;;;;;;;2.30;2.10;;;18.80;99.90;;;;;;4990368;28;20204;-76
2022/06/26 03:46:16;;;;;;;3.50;1.97;;;18.80;99.90;;;;;;4990838;28;20857;-75
2022/06/26 03:48:44;;;;;;;2.17;2.07;;;18.80;99.90;;;;;;4990424;28;20284;-77
2022/06/26 03:51:09;;;;;;;2.10;1.80;;;18.70;99.90;;;;;;4989060;28;20214;-77
2022/06/26 03:53:36;;;;;;;2.10;2.00;;;18.60;99.90;;;;;;4990849;28;20456;-77
2022/06/26 03:56:02;;;;;;;3.10;2.03;;;18.60;99.90;;;;;;4991160;28;20196;-77
2022/06/26 03:58:28;;;;;;;2.70;1.40;;;18.70;99.90;;;;;;4972742;28;20498;-76
2022/06/26 04:00:54;;;;;;;2.63;1.57;;;18.70;99.90;;;;;;4990901;28;20417;-77
2022/06/26 04:03:20;;;;;;;4.27;2.07;;;18.80;99.90;;;;;;4990978;28;20864;-77
2022/06/26 04:05:46;;;;;;;6.13;2.10;;;18.90;99.90;;;;;;4989809;28;20925;-77
2022/06/26 04:08:12;;;;;;;2.13;1.93;;;19.00;99.90;;;;;;4990880;28;20425;-77
2022/06/26 04:10:38;;;;;;;1.80;1.70;;;18.90;99.90;;;;;;4990723;28;20879;-77
2022/06/26 04:13:05;;;;;;;6.67;2.43;;;19.10;99.90;;;;;;4989952;28;20200;-77
2022/06/26 04:15:33;;;;;;;2.00;1.70;;;19.20;99.90;;;;;;4991583;28;20344;-77
2022/06/26 04:17:58;;;;;;;2.70;2.27;;;19.10;99.90;;;;;;5007524;28;20996;-77
2022/06/26 04:20:24;;;;;;;1.90;1.80;;;19.10;99.90;;;;;;4990736;28;20471;-77
2022/06/26 04:23:05;;;;;;;1.83;1.70;;;19.10;99.90;;;;;;4991565;28;20606;-76
2022/06/26 04:25:32;;;;;;;2.00;1.80;;;19.10;99.90;;;;;;4990175;28;20424;-76
2022/06/26 04:27:59;;;;;;;1.67;1.40;;;19.00;99.90;;;;;;5004427;28;20454;-76
2022/06/26 04:30:26;;;;;;;2.10;2.00;;;19.00;99.90;;;;;;5005445;28;20433;-76
2022/06/26 04:32:51;;;;;;;4.47;1.90;;;18.90;99.90;;;;;;4989812;28;20420;-75
2022/06/26 04:35:17;;;;;;;1.70;1.60;;;18.80;99.90;;;;;;4989650;28;20441;-76
2022/06/26 04:37:43;;;;;;;2.57;2.37;;;18.80;99.90;;;;;;4989830;28;20205;-76
2022/06/26 04:40:11;;;;;;;2.37;2.17;;;18.80;99.90;;;;;;4990048;28;20427;-76
2022/06/26 04:42:38;;;;;;;1.80;1.70;;;18.70;99.90;;;;;;4988836;28;20192;-76
2022/06/26 04:45:05;;;;;;;2.10;1.90;;;18.60;99.90;;;;;;4990261;28;20450;-76
2022/06/26 04:47:30;;;;;;;5.10;1.80;;;18.60;99.90;;;;;;4990150;28;20846;-76
2022/06/26 04:49:57;;;;;;;3.27;1.90;;;18.70;99.90;;;;;;4989908;28;20428;-76
2022/06/26 04:52:22;;;;;;;2.53;1.60;;;18.70;99.90;;;;;;5004819;28;20237;-76
2022/06/26 04:54:48;;;;;;;4.20;1.90;;;18.80;99.90;;;;;;4989840;28;20463;-76
2022/06/26 04:57:13;;;;;;;1.93;1.80;;;18.80;99.90;;;;;;4990054;28;20294;-76
2022/06/26 04:59:39;;;;;;;2.27;1.87;;;18.70;99.90;;;;;;5005180;28;20189;-75
2022/06/26 05:02:06;;;;;;;2.03;1.60;;;18.70;99.90;;;;;;5004728;28;20252;-76
2022/06/26 05:04:32;;;;;;;2.37;1.90;;;18.70;99.90;;;;;;4988071;28;20243;-73
2022/06/26 05:06:58;;;;;;;2.07;1.70;;;19.00;99.90;;;;;;4989476;28;20453;-74
2022/06/26 05:09:24;;;;;;;1.73;1.63;;;19.20;99.90;;;;;;4989278;28;20828;-73
2022/06/26 05:11:51;;;;;;;4.40;1.80;;;19.30;99.90;;;;;;4991669;28;20212;-73
2022/06/26 05:14:17;;;;;;;2.83;1.57;;;19.40;99.90;;;;;;4992597;28;20495;-74
2022/06/26 05:16:43;;;;;;;2.50;2.07;;;19.50;99.90;;;;;;4993903;28;20548;-73
2022/06/26 05:19:09;;;;;;;2.30;1.70;;;19.60;99.90;;;;;;4992835;28;20982;-74
2022/06/26 05:21:35;;;;;;;2.43;1.67;;;19.70;99.90;;;;;;4991510;28;20184;-74
2022/06/26 05:24:00;;;;;;;2.13;1.33;;;19.70;99.90;;;;;;4975057;28;20772;-75
2022/06/26 05:26:26;;;;;;;2.30;2.00;;;19.80;99.90;;;;;;4992416;28;20432;-76
2022/06/26 05:28:52;;;;;;;4.27;1.83;;;20.00;99.90;;;;;;4990849;28;20185;-76
2022/06/26 05:31:18;;;;;;;1.63;1.53;;;20.10;99.90;;;;;;4975231;28;20193;-75
2022/06/26 05:33:44;;;;;;;1.40;1.30;;;20.20;99.90;;;;;;4991844;28;20213;-75
2022/06/26 05:36:10;;;;;;;2.87;1.77;;;20.30;99.90;;;;;;4992775;28;20475;-76
2022/06/26 05:38:36;;;;;;;3.63;1.40;;;20.30;99.90;;;;;;4992592;28;20472;-76
2022/06/26 05:41:02;;;;;;;1.73;1.60;;;20.30;99.90;;;;;;4992740;28;20436;-76
2022/06/26 05:43:28;;;;;;;1.50;1.40;;;20.30;99.90;;;;;;4992615;28;20429;-75
2022/06/26 05:45:53;;;;;;;2.37;1.93;;;20.30;99.90;;;;;;4992720;28;20204;-76
2022/06/26 05:48:19;;;;;;;3.80;1.50;;;20.20;99.90;;;;;;4992285;28;20197;-76
2022/06/26 05:50:45;;;;;;;2.30;1.87;;;20.10;99.90;;;;;;4992305;28;20223;-76
2022/06/26 05:53:11;;;;;;;3.30;1.57;;;20.10;99.90;;;;;;4992031;28;20464;-76
2022/06/26 05:55:38;;;;;;;1.63;1.53;;;20.10;99.90;;;;;;4990733;28;20460;-76
2022/06/26 05:58:05;;;;;;;1.73;1.63;;;20.00;99.90;;;;;;5006823;28;20595;-76
2022/06/26 06:00:30;;;;;;;6.00;1.30;;;20.00;99.90;;;;;;4992020;28;20780;-76
2022/06/26 06:02:56;;;;;;;2.50;1.50;;;20.10;99.90;;;;;;4991777;28;20427;-76
2022/06/26 06:05:22;;;;;;;1.97;1.47;;;20.10;99.90;;;;;;4991644;28;20222;-76
2022/06/26 06:07:48;;;;;;;1.57;1.47;;;19.90;99.90;;;;;;4990504;28;20198;-76
2022/06/26 06:10:14;;;;;;;2.07;1.57;;;19.90;99.90;;;;;;4990269;28;20431;-76
2022/06/26 06:12:39;;;;;;;2.23;1.73;;;19.90;99.90;;;;;;4990299;28;20221;-76
2022/06/26 06:15:06;;;;;;;2.77;2.00;;;19.90;99.90;;;;;;4989972;28;20313;-76
2022/06/26 06:17:40;;;;;;;3.00;1.80;;;20.00;99.90;;;;;;4991276;28;20211;-76
2022/06/26 06:20:10;;;;;;;2.33;1.67;;;20.10;99.90;;;;;;4990216;28;20990;-76
2022/06/26 06:22:36;;;;;;;1.87;1.60;;;20.20;99.90;;;;;;4990982;28;20425;-76
2022/06/26 06:25:02;;;;;;;2.73;1.70;;;20.10;99.90;;;;;;4991450;28;20439;-76
2022/06/26 06:27:28;;;;;;;2.70;1.77;;;20.10;99.90;;;;;;4991342;28;20475;-76
2022/06/26 06:29:54;;;;;;;1.63;1.53;;;20.10;99.90;;;;;;4990058;28;20831;-76
2022/06/26 06:32:19;;;;;;;2.63;1.90;;;20.30;99.90;;;;;;5006139;28;20268;-76
2022/06/26 06:34:45;;;;;;;1.83;1.40;;;20.40;99.90;;;;;;4991667;28;20232;-76
2022/06/26 06:37:10;;;;;;;3.53;1.30;;;20.50;99.90;;;;;;4991744;28;20643;-76
2022/06/26 06:39:36;;;;;;;2.70;1.60;;;20.60;99.90;;;;;;4991739;28;20198;-76
2022/06/26 06:42:02;;;;;;;1.70;1.60;;;20.60;99.90;;;;;;4990553;28;20182;-76
2022/06/26 06:44:28;;;;;;;5.00;1.70;;;20.80;99.90;;;;;;4992172;28;20689;-76
2022/06/26 06:46:54;;;;;;;1.80;1.70;;;20.90;99.90;;;;;;4991271;28;20512;-76
2022/06/26 06:49:19;;;;;;;2.90;2.00;;;21.10;99.90;;;;;;4993486;28;20185;-76
2022/06/26 06:51:45;;;;;;;1.63;1.53;;;21.30;99.90;;;;;;4992249;28;20277;-77
2022/06/26 06:54:11;;;;;;;2.17;1.70;;;21.50;99.90;;;;;;4991540;28;20205;-76
2022/06/26 06:56:36;;;;;;;2.37;2.00;;;21.60;99.90;;;;;;4991018;28;20231;-76
2022/06/26 06:59:03;;;;;;;3.50;2.00;;;21.70;99.90;;;;;;4990084;28;21020;-76
2022/06/26 07:01:29;;;;;;;2.30;2.10;;;21.70;99.90;;;;;;4992443;28;20264;-76
2022/06/26 07:03:54;;;;;;;2.80;1.63;;;21.80;99.90;;;;;;5002416;28;20460;-76
2022/06/26 07:06:20;;;;;;;3.07;1.60;;;22.10;99.90;;;;;;5014663;28;20450;-75
2022/06/26 07:08:46;;;;;;;1.87;1.63;;;22.20;99.90;;;;;;5030777;28;20181;-76
2022/06/26 07:11:11;;;;;;;2.53;1.57;;;22.40;99.90;;;;;;5015088;28;20175;-76
2022/06/26 07:13:37;;;;;;;1.90;1.80;;;22.40;99.90;;;;;;5004734;28;20209;-76
2022/06/26 07:16:03;;;;;;;5.80;2.10;;;22.50;99.90;;;;;;4995787;28;20186;-76
2022/06/26 07:18:29;;;;;;;1.70;1.60;;;22.50;99.90;;;;;;4993618;28;20702;-76
2022/06/26 07:20:54;;;;;;;2.00;1.83;;;22.50;99.90;;;;;;4992530;28;20190;-76
2022/06/26 07:23:20;;;;;;;2.80;1.70;;;22.50;99.90;;;;;;4988451;28;20197;-76
2022/06/26 07:25:46;;;;;;;1.83;1.73;;;22.50;99.90;;;;;;4988114;28;20747;-77
2022/06/26 07:28:12;;;;;;;1.60;1.20;;;22.70;99.90;;;;;;4988958;28;20185;-76
2022/06/26 07:30:38;;;;;;;2.07;1.90;;;22.80;99.90;;;;;;4988988;28;20221;-76
2022/06/26 07:33:05;;;;;;;2.50;1.60;;;22.90;99.90;;;;;;4987999;28;20514;-76
2022/06/26 07:35:30;;;;;;;1.80;1.70;;;22.90;99.90;;;;;;4988551;28;20261;-76
2022/06/26 07:37:56;;;;;;;1.73;1.63;;;23.00;99.90;;;;;;4988530;28;20468;-76
2022/06/26 07:40:22;;;;;;;2.30;1.93;;;22.90;99.90;;;;;;4988601;28;20606;-76
2022/06/26 07:42:47;;;;;;;3.63;1.53;;;23.00;99.90;;;;;;4988231;28;20187;-76
2022/06/26 07:45:13;;;;;;;7.40;1.13;;;23.10;99.90;;;;;;4986911;28;20303;-76
2022/06/26 07:47:39;;;;;;;1.40;1.30;;;23.20;99.90;;;;;;4986909;28;20244;-76
2022/06/26 07:50:05;;;;;;;1.97;1.40;;;23.30;99.90;;;;;;4986841;28;20220;-77
2022/06/26 07:52:30;;;;;;;3.90;1.37;;;23.40;99.90;;;;;;5003126;28;20195;-76
2022/06/26 07:54:56;;;;;;;2.70;1.23;;;23.40;99.90;;;;;;4988443;28;20450;-77
2022/06/26 07:57:22;;;;;;;1.20;1.10;;;23.50;99.90;;;;;;4987183;28;20211;-77
2022/06/26 07:59:47;;;;;;;1.33;1.23;;;23.60;99.90;;;;;;4987784;28;20717;-77
2022/06/26 08:02:13;;;;;;;2.80;1.30;;;23.70;99.90;;;;;;4987607;28;20179;-77
2022/06/26 08:04:39;;;;;;;2.10;1.17;;;23.70;99.90;;;;;;4987753;28;20352;-77
2022/06/26 08:07:04;;;;;;;1.50;1.40;;;23.70;99.90;;;;;;4989042;28;20184;-77
2022/06/26 08:09:30;;;;;;;1.60;1.50;;;23.80;99.90;;;;;;4987325;28;20194;-77
2022/06/26 08:11:56;;;;;;;7.37;1.63;;;24.00;99.90;;;;;;4988788;28;20253;-77
2022/06/26 08:14:22;;;;;;;1.33;1.00;;;24.10;99.90;;;;;;4988585;28;20219;-77
2022/06/26 08:16:47;;;;;;;1.87;1.30;;;24.10;99.90;;;;;;4989351;28;20431;-77
2022/06/26 08:19:13;;;;;;;1.40;1.30;;;24.20;99.90;;;;;;4987018;28;20584;-77
2022/06/26 08:24:23;;;;;;;3.13;1.77;;;24.40;99.90;;;;;;4988698;28;20219;-77
2022/06/26 08:26:49;;;;;;;1.80;1.70;;;24.60;99.90;;;;;;4988793;28;20420;-77
2022/06/26 08:29:14;;;;;;;1.77;1.20;;;24.60;99.90;;;;;;4988393;28;20188;-76
2022/06/26 08:31:40;;;;;;;2.60;1.30;;;24.50;99.90;;;;;;4988645;28;20246;-77
2022/06/26 08:34:06;;;;;;;1.33;1.23;;;24.50;99.90;;;;;;4970653;28;20682;-77
2022/06/26 08:36:32;;;;;;;6.23;1.20;;;24.80;99.90;;;;;;4988216;28;20249;-75
2022/06/26 08:38:57;;;;;;;1.40;1.27;;;24.90;99.90;;;;;;4986498;28;20895;-75
2022/06/26 08:41:28;;;;;;;2.70;1.37;;;25.10;99.90;;;;;;4988166;28;20195;-75
2022/06/26 08:44:00;;;;;;;1.57;1.47;;;25.50;99.90;;;;;;5003832;28;20205;-77
2022/06/26 08:46:27;;;;;;;1.70;1.60;;;25.40;99.90;;;;;;4991988;28;21102;-77
2022/06/26 08:48:57;;;;;;;1.90;1.80;;;25.40;99.90;;;;;;4992724;28;20419;-77
2022/06/26 08:51:23;;;;;;;2.90;1.53;;;25.40;99.90;;;;;;4992268;28;20424;-77
2022/06/26 08:53:52;;;;;;;1.30;1.20;;;25.70;99.90;;;;;;4992098;28;20469;-76
2022/06/26 08:56:18;;;;;;;1.50;1.00;;;25.70;99.90;;;;;;4990634;28;20454;-77
2022/06/26 08:58:43;;;;;;;1.60;1.40;;;25.80;99.90;;;;;;4990766;28;20499;-77
2022/06/26 09:01:09;;;;;;;1.83;1.47;;;25.90;99.90;;;;;;4991514;28;20243;-77
2022/06/26 09:03:35;;;;;;;1.97;1.40;;;26.10;99.90;;;;;;4991340;28;20733;-77
2022/06/26 09:06:02;;;;;;;1.57;1.47;;;26.00;99.90;;;;;;4991468;28;20181;-77
2022/06/26 09:08:30;;;;;;;1.70;1.40;;;25.90;99.90;;;;;;4991431;28;20682;-77
2022/06/26 09:10:57;;;;;;;1.50;1.40;;;25.90;99.90;;;;;;4991344;28;20431;-77
2022/06/26 09:13:22;;;;;;;1.80;1.60;;;26.00;99.90;;;;;;4992551;28;20487;-77
2022/06/26 09:15:51;;;;;;;1.60;1.50;;;26.20;99.90;;;;;;4990624;28;20588;-77
2022/06/26 09:18:17;;;;;;;1.73;1.63;;;26.30;99.90;;;;;;4991800;28;20612;-79
2022/06/26 09:20:54;;;;;;;1.73;1.63;;;26.20;99.90;;;;;;4990902;28;20421;-78
2022/06/26 09:23:24;;;;;;;2.07;1.50;;;26.50;99.90;;;;;;4990718;28;20658;-78
2022/06/26 09:25:50;;;;;;;2.90;1.80;;;27.00;99.90;;;;;;5005430;28;20433;-78
2022/06/26 09:28:19;;;;;;;1.60;1.50;;;27.20;99.90;;;;;;4990843;28;20420;-77
2022/06/26 09:30:59;;;;;;;2.20;1.73;;;27.60;99.90;;;;;;4990629;28;20209;-78
2022/06/26 09:33:26;;;;;;;2.17;1.50;;;27.60;99.90;;;;;;4989124;28;20432;-78
2022/06/26 09:35:52;;;;;;;1.73;1.63;;;27.80;99.90;;;;;;4991114;28;20420;-78
2022/06/26 09:38:21;;;;;;;1.20;1.10;;;28.10;99.00;;;;;;4989239;28;20484;-78
2022/06/26 09:41:07;;;;;;;1.87;1.47;;;28.30;96.90;;;;;;4989292;28;20417;-78
2022/06/26 09:43:38;;;;;;;1.77;1.37;;;28.60;97.30;;;;;;4990347;28;20443;-78
2022/06/26 09:46:06;;;;;;;1.50;1.30;;;28.60;95.30;;;;;;4991801;28;20433;-78
2022/06/26 09:48:33;;;;;;;1.30;1.20;;;28.70;95.80;;;;;;5012768;28;20428;-78
2022/06/26 09:50:59;;;;;;;3.47;1.43;;;28.90;95.90;;;;;;5000452;28;20425;-78
2022/06/26 09:53:27;;;;;;;3.03;1.40;;;29.30;94.80;;;;;;5002173;28;20421;-79
2022/06/26 09:55:55;;;;;;;1.70;1.60;;;29.20;93.90;;;;;;5016159;28;20429;-79
2022/06/26 09:58:21;;;;;;;3.87;1.70;;;29.50;93.30;;;;;;5017319;28;20465;-79
2022/06/26 10:06:25;;;;;;;1.57;1.40;;;30.00;93.20;;;;;;5000837;28;20515;-79
2022/06/26 10:06:25;;;;;;;3.63;1.50;;;29.90;92.10;;;;;;5002587;28;20420;-79
2022/06/26 10:09:00;;;;;;;1.40;1.30;;;29.80;91.50;;;;;;5000358;28;20444;-79
2022/06/26 10:11:28;;;;;;;1.77;1.33;;;30.10;92.80;;;;;;5003549;28;20855;-79
2022/06/26 10:14:14;;;;;;;1.30;1.20;;;30.60;91.50;;;;;;4981848;28;21183;-78
2022/06/26 10:16:42;;;;;;;1.70;1.33;;;30.60;90.20;;;;;;4994335;28;20541;-76
2022/06/26 10:19:44;;;;;;;1.60;1.40;;;30.70;89.60;;;;;;4990050;28;20602;-76
2022/06/26 10:22:10;;;;;;;3.07;1.27;;;30.40;90.20;;;;;;4990305;28;20448;-76
2022/06/26 10:24:49;;;;;;;3.57;1.67;;;30.20;89.60;;;;;;4990006;28;20816;-77
2022/06/26 10:27:14;;;;;;;2.10;1.40;;;30.10;90.20;;;;;;4989647;28;20409;-76
2022/06/26 10:29:41;;;;;;;2.47;1.40;;;30.00;90.00;;;;;;4989658;28;20429;-76
2022/06/26 10:32:10;;;;;;;2.37;2.20;;;29.70;90.10;;;;;;4989761;28;20304;-77
2022/06/26 10:34:36;;;;;;;1.60;1.50;;;29.60;90.20;;;;;;4989271;28;20448;-76
2022/06/26 10:37:13;;;;;;;1.13;1.03;;;29.20;90.40;;;;;;4989527;28;20797;-76
2022/06/26 10:39:42;;;;;;;2.90;2.30;;;29.20;91.20;;;;;;4989367;28;20518;-76
2022/06/26 10:45:09;;;;;;;2.50;1.00;;;29.30;90.80;;;;;;4988979;28;20429;-74
2022/06/26 10:47:45;;;;;;;2.50;1.60;;;29.20;90.50;;;;;;4989497;28;20423;-75
2022/06/26 10:50:27;;;;;;;4.33;2.70;;;29.30;90.90;;;;;;4989718;28;20412;-75
2022/06/26 10:52:59;;;;;;;1.87;1.10;;;29.60;91.00;;;;;;4989858;28;20418;-75
2022/06/26 10:55:25;;;;;;;1.03;0.93;;;29.70;90.30;;;;;;4989731;28;20467;-76
2022/06/26 10:57:50;;;;;;;1.30;1.20;;;29.70;90.20;;;;;;4988338;28;20460;-76
2022/06/26 11:00:17;;;;;;;1.07;0.93;;;29.80;89.80;;;;;;4989672;28;20206;-74
2022/06/26 11:02:44;;;;;;;1.00;0.90;;;29.80;90.40;;;;;;4990016;28;20184;-75
2022/06/26 11:05:11;;;;;;;1.13;1.00;;;29.50;90.10;;;;;;4989835;28;20453;-75
2022/06/26 11:07:48;;;;;;;2.20;1.00;;;29.60;90.00;;;;;;4989965;28;20459;-74
2022/06/26 11:10:21;;;;;;;2.13;1.20;;;29.70;90.80;;;;;;4990057;28;20952;-75
2022/06/26 11:12:52;;;;;;;1.57;1.20;;;29.70;91.00;;;;;;4991121;28;20405;-75
2022/06/26 11:15:28;;;;;;;1.40;1.30;;;30.00;90.50;;;;;;4989699;28;20441;-76
2022/06/26 11:17:54;;;;;;;1.23;0.87;;;29.90;88.30;;;;;;4989635;28;20813;-75
2022/06/26 11:23:23;;;;;;;2.60;1.10;;;30.00;90.60;;;;;;4989866;28;20415;-75
2022/06/26 11:25:55;;;;;;;1.30;1.13;;;30.00;90.20;;;;;;4989577;28;20464;-75
2022/06/26 11:28:27;;;;;;;1.17;1.03;;;30.30;90.20;;;;;;4989225;28;20437;-75
2022/06/26 11:30:57;;;;;;;1.27;1.17;;;30.20;87.40;;;;;;4988764;28;20421;-75
2022/06/26 11:33:28;;;;;;;2.03;1.20;;;30.20;89.40;;;;;;4988844;28;20457;-75
2022/06/26 11:35:54;;;;;;;1.63;1.00;;;30.10;88.70;;;;;;4988676;28;20421;-76
2022/06/26 11:38:21;;;;;;;1.43;1.33;;;29.90;88.10;;;;;;4988867;28;20465;-74
2022/06/26 11:40:48;;;;;;;1.53;1.43;;;29.60;89.30;;;;;;4988910;28;20415;-75
2022/06/26 11:43:14;;;;;;;1.63;1.10;;;29.70;90.30;;;;;;4988809;28;20864;-75
2022/06/26 11:45:42;;;;;;;1.27;1.17;;;29.50;90.00;;;;;;4988769;28;20444;-75
2022/06/26 11:48:12;;;;;;;1.33;1.23;;;29.80;90.60;;;;;;4988667;28;20955;-75
2022/06/26 11:50:39;;;;;;;4.80;1.10;;;30.00;89.70;;;;;;4987488;28;20450;-76
2022/06/26 11:53:07;;;;;;;2.83;1.10;;;30.20;90.00;;;;;;4988519;28;20440;-74
2022/06/26 11:55:33;;;;;;;1.23;1.00;;;30.30;87.80;;;;;;4988362;28;20575;-76
2022/06/26 11:58:02;;;;;;;4.80;1.30;;;30.50;87.00;;;;;;4988185;28;20464;-75
2022/06/26 12:00:29;;;;;;;2.13;1.40;;;30.30;90.00;;;;;;4988310;28;21032;-74
2022/06/26 12:02:55;;;;;;;1.00;0.93;;;30.10;87.30;;;;;;4988031;28;20413;-75
2022/06/26 12:05:23;;;;;;;1.87;1.00;;;30.00;88.50;;;;;;4987976;28;20448;-76
2022/06/26 12:07:50;;;;;;;3.30;0.87;;;30.10;88.30;;;;;;4986546;28;20201;-75
2022/06/26 12:10:33;;;;;;;1.20;1.10;;;30.20;87.10;;;;;;4986648;28;20420;-75
2022/06/26 12:13:00;;;;;;;1.63;1.20;;;30.10;88.20;;;;;;4988055;28;20432;-75
2022/06/26 12:15:33;;;;;;;0.80;0.80;;;30.20;89.70;;;;;;4988170;28;20444;-75
2022/06/26 12:18:04;;;;;;;1.10;1.00;;;30.00;87.10;;;;;;4987948;28;20461;-75
2022/06/26 12:20:39;;;;;;;2.20;1.20;;;30.00;87.00;;;;;;4987742;28;20926;-76
2022/06/26 12:23:05;;;;;;;0.90;0.90;;;29.90;89.10;;;;;;4988191;28;20455;-75
2022/06/26 12:25:34;;;;;;;0.83;0.83;;;30.00;89.70;;;;;;4988337;28;20472;-76
2022/06/26 12:28:00;;;;;;;1.00;0.90;;;29.90;88.80;;;;;;4988380;28;21130;-76
2022/06/26 12:30:35;;;;;;;1.97;1.07;;;30.10;88.90;;;;;;4988152;28;20456;-75
2022/06/26 12:33:04;;;;;;;1.23;1.13;;;30.10;90.20;;;;;;4986426;28;20455;-75
2022/06/26 12:35:31;;;;;;;1.43;1.33;;;30.30;89.40;;;;;;4987582;28;20444;-75
2022/06/26 12:37:57;;;;;;;1.30;0.80;;;30.30;87.20;;;;;;5002621;28;20496;-76
2022/06/26 12:40:23;;;;;;;1.70;1.23;;;30.30;87.40;;;;;;4987946;28;20503;-76
2022/06/26 12:42:49;;;;;;;1.87;1.30;;;30.30;87.80;;;;;;4986310;28;20480;-76
2022/06/26 12:45:15;;;;;;;1.30;1.17;;;30.00;87.60;;;;;;4987908;28;20204;-76
2022/06/26 12:47:40;;;;;;;1.03;0.93;;;30.10;87.80;;;;;;4988245;28;20213;-78
2022/06/26 12:50:07;;;;;;;4.93;1.07;;;30.10;87.60;;;;;;4988035;28;20606;-76
2022/06/26 12:52:33;;;;;;;2.40;1.30;;;30.20;86.80;;;;;;4987826;28;20174;-76
2022/06/26 12:55:00;;;;;;;2.83;0.93;;;30.10;88.40;;;;;;5002121;28;20440;-75
2022/06/26 12:57:26;;;;;;;1.00;0.90;;;30.10;89.10;;;;;;4987298;28;20471;-75
2022/06/26 12:59:52;;;;;;;2.27;1.00;;;30.10;87.90;;;;;;4987302;28;20443;-75
2022/06/26 13:02:17;;;;;;;1.70;1.00;;;30.10;87.60;;;;;;4985728;28;20425;-76